sensor_id;sensor_type;location;lat;lon;timestamp;P1;durP1;ratioP1;P2;durP2;ratioP2
21416;SDS011;10869;52.238;10.716;2024-02-15T00:02:22;13.27;;;9.27;;
21416;SDS011;10869;52.238;10.716;2024-02-15T00:04:48;13.33;;;9.27;;
21416;SDS011;10869;52.238;10.716;2024-02-15T00:07:14;15.80;;;8.40;;
21416;SDS011;10869;52.238;10.716;2024-02-15T00:09:40;14.27;;;8.43;;
21416;SDS011;10869;52.238;10.716;2024-02-15T00:12:08;10.83;;;7.93;;
21416;SDS011;10869;52.238;10.716;2024-02-15T00:14:35;14.13;;;8.97;;
21416;SDS011;10869;52.238;10.716;2024-02-15T00:17:04;15.13;;;7.93;;
21416;SDS011;10869;52.238;10.716;2024-02-15T00:19:30;12.17;;;7.90;;
21416;SDS011;10869;52.238;10.716;2024-02-15T00:21:56;11.50;;;7.53;;
21416;SDS011;10869;52.238;10.716;2024-02-15T00:24:22;13.27;;;8.23;;
21416;SDS011;10869;52.238;10.716;2024-02-15T00:26:49;13.10;;;8.47;;
21416;SDS011;10869;52.238;10.716;2024-02-15T00:29:16;11.53;;;7.93;;
21416;SDS011;10869;52.238;10.716;2024-02-15T00:31:43;11.37;;;7.37;;
21416;SDS011;10869;52.238;10.716;2024-02-15T00:34:10;14.13;;;8.40;;
21416;SDS011;10869;52.238;10.716;2024-02-15T00:36:36;11.90;;;7.97;;
21416;SDS011;10869;52.238;10.716;2024-02-15T00:39:02;12.40;;;8.67;;
21416;SDS011;10869;52.238;10.716;2024-02-15T00:41:31;13.40;;;9.67;;
21416;SDS011;10869;52.238;10.716;2024-02-15T00:43:59;13.63;;;9.83;;
21416;SDS011;10869;52.238;10.716;2024-02-15T00:46:25;15.53;;;9.60;;
21416;SDS011;10869;52.238;10.716;2024-02-15T00:48:54;14.63;;;9.77;;
21416;SDS011;10869;52.238;10.716;2024-02-15T00:51:20;15.30;;;10.03;;
21416;SDS011;10869;52.238;10.716;2024-02-15T00:53:46;13.57;;;9.87;;
21416;SDS011;10869;52.238;10.716;2024-02-15T00:56:12;13.40;;;9.50;;
21416;SDS011;10869;52.238;10.716;2024-02-15T00:58:39;15.03;;;9.60;;
21416;SDS011;10869;52.238;10.716;2024-02-15T01:01:05;14.60;;;9.90;;
21416;SDS011;10869;52.238;10.716;2024-02-15T01:03:31;15.90;;;10.10;;
21416;SDS011;10869;52.238;10.716;2024-02-15T01:05:57;15.13;;;9.47;;
21416;SDS011;10869;52.238;10.716;2024-02-15T01:08:22;13.53;;;9.50;;
21416;SDS011;10869;52.238;10.716;2024-02-15T01:10:49;12.63;;;9.00;;
21416;SDS011;10869;52.238;10.716;2024-02-15T01:16:42;13.97;;;9.77;;
21416;SDS011;10869;52.238;10.716;2024-02-15T01:19:09;15.13;;;9.40;;
21416;SDS011;10869;52.238;10.716;2024-02-15T01:21:35;16.47;;;9.57;;
21416;SDS011;10869;52.238;10.716;2024-02-15T01:24:01;13.37;;;8.93;;
21416;SDS011;10869;52.238;10.716;2024-02-15T01:26:32;13.83;;;9.43;;
21416;SDS011;10869;52.238;10.716;2024-02-15T01:28:59;16.00;;;10.70;;
21416;SDS011;10869;52.238;10.716;2024-02-15T01:31:25;15.43;;;10.30;;
21416;SDS011;10869;52.238;10.716;2024-02-15T01:33:51;18.00;;;10.70;;
21416;SDS011;10869;52.238;10.716;2024-02-15T01:36:17;16.57;;;10.70;;
21416;SDS011;10869;52.238;10.716;2024-02-15T01:38:44;16.87;;;11.27;;
21416;SDS011;10869;52.238;10.716;2024-02-15T01:41:10;16.00;;;10.87;;
21416;SDS011;10869;52.238;10.716;2024-02-15T01:43:36;18.50;;;10.00;;
21416;SDS011;10869;52.238;10.716;2024-02-15T01:46:09;16.80;;;11.10;;
21416;SDS011;10869;52.238;10.716;2024-02-15T01:48:35;19.73;;;10.87;;
21416;SDS011;10869;52.238;10.716;2024-02-15T01:51:02;16.23;;;9.93;;
21416;SDS011;10869;52.238;10.716;2024-02-15T01:53:29;15.57;;;10.57;;
21416;SDS011;10869;52.238;10.716;2024-02-15T01:55:56;16.07;;;10.00;;
21416;SDS011;10869;52.238;10.716;2024-02-15T01:58:26;16.50;;;10.47;;
21416;SDS011;10869;52.238;10.716;2024-02-15T02:00:53;15.43;;;10.57;;
21416;SDS011;10869;52.238;10.716;2024-02-15T02:06:43;19.57;;;11.53;;
21416;SDS011;10869;52.238;10.716;2024-02-15T02:09:10;19.10;;;10.33;;
21416;SDS011;10869;52.238;10.716;2024-02-15T02:11:44;17.73;;;10.97;;
21416;SDS011;10869;52.238;10.716;2024-02-15T02:14:11;16.33;;;10.30;;
21416;SDS011;10869;52.238;10.716;2024-02-15T02:16:37;14.47;;;10.33;;
21416;SDS011;10869;52.238;10.716;2024-02-15T02:19:04;16.77;;;10.53;;
21416;SDS011;10869;52.238;10.716;2024-02-15T02:21:34;20.33;;;10.93;;
21416;SDS011;10869;52.238;10.716;2024-02-15T02:24:04;14.93;;;10.10;;
21416;SDS011;10869;52.238;10.716;2024-02-15T02:26:37;18.30;;;10.27;;
21416;SDS011;10869;52.238;10.716;2024-02-15T02:29:03;17.17;;;10.00;;
21416;SDS011;10869;52.238;10.716;2024-02-15T02:31:33;19.00;;;11.03;;
21416;SDS011;10869;52.238;10.716;2024-02-15T02:34:00;16.33;;;9.97;;
21416;SDS011;10869;52.238;10.716;2024-02-15T02:36:26;19.00;;;11.00;;
21416;SDS011;10869;52.238;10.716;2024-02-15T02:38:52;17.67;;;10.17;;
21416;SDS011;10869;52.238;10.716;2024-02-15T02:41:18;15.40;;;9.90;;
21416;SDS011;10869;52.238;10.716;2024-02-15T02:43:44;16.47;;;10.23;;
21416;SDS011;10869;52.238;10.716;2024-02-15T02:46:11;17.57;;;11.33;;
21416;SDS011;10869;52.238;10.716;2024-02-15T02:48:37;14.33;;;10.30;;
21416;SDS011;10869;52.238;10.716;2024-02-15T02:51:03;19.10;;;10.27;;
21416;SDS011;10869;52.238;10.716;2024-02-15T02:53:30;16.20;;;10.40;;
21416;SDS011;10869;52.238;10.716;2024-02-15T02:55:56;14.87;;;10.00;;
21416;SDS011;10869;52.238;10.716;2024-02-15T02:58:22;18.70;;;10.20;;
21416;SDS011;10869;52.238;10.716;2024-02-15T03:00:48;17.57;;;10.60;;
21416;SDS011;10869;52.238;10.716;2024-02-15T03:03:15;15.30;;;9.40;;
21416;SDS011;10869;52.238;10.716;2024-02-15T03:05:41;15.53;;;10.37;;
21416;SDS011;10869;52.238;10.716;2024-02-15T03:08:13;19.00;;;9.77;;
21416;SDS011;10869;52.238;10.716;2024-02-15T03:10:42;13.43;;;8.67;;
21416;SDS011;10869;52.238;10.716;2024-02-15T03:13:09;15.27;;;9.07;;
21416;SDS011;10869;52.238;10.716;2024-02-15T03:15:35;13.87;;;9.33;;
21416;SDS011;10869;52.238;10.716;2024-02-15T03:18:02;19.53;;;8.97;;
21416;SDS011;10869;52.238;10.716;2024-02-15T03:20:38;18.70;;;8.87;;
21416;SDS011;10869;52.238;10.716;2024-02-15T03:23:04;15.17;;;9.20;;
21416;SDS011;10869;52.238;10.716;2024-02-15T03:25:30;12.60;;;8.50;;
21416;SDS011;10869;52.238;10.716;2024-02-15T03:27:56;12.37;;;8.10;;
21416;SDS011;10869;52.238;10.716;2024-02-15T03:30:26;11.77;;;7.97;;
21416;SDS011;10869;52.238;10.716;2024-02-15T03:32:56;12.63;;;7.97;;
21416;SDS011;10869;52.238;10.716;2024-02-15T03:35:24;12.43;;;8.50;;
21416;SDS011;10869;52.238;10.716;2024-02-15T03:37:51;12.00;;;7.43;;
21416;SDS011;10869;52.238;10.716;2024-02-15T03:40:21;11.00;;;7.37;;
21416;SDS011;10869;52.238;10.716;2024-02-15T03:42:48;14.17;;;7.00;;
21416;SDS011;10869;52.238;10.716;2024-02-15T03:45:17;10.43;;;6.67;;
21416;SDS011;10869;52.238;10.716;2024-02-15T03:47:43;11.93;;;7.10;;
21416;SDS011;10869;52.238;10.716;2024-02-15T03:50:09;12.73;;;6.07;;
21416;SDS011;10869;52.238;10.716;2024-02-15T03:52:35;10.27;;;6.77;;
21416;SDS011;10869;52.238;10.716;2024-02-15T03:55:02;10.80;;;6.20;;
21416;SDS011;10869;52.238;10.716;2024-02-15T03:57:28;10.07;;;6.53;;
21416;SDS011;10869;52.238;10.716;2024-02-15T03:59:54;9.37;;;5.83;;
21416;SDS011;10869;52.238;10.716;2024-02-15T04:02:25;9.90;;;6.37;;
21416;SDS011;10869;52.238;10.716;2024-02-15T04:04:55;12.23;;;6.17;;
21416;SDS011;10869;52.238;10.716;2024-02-15T04:07:22;9.93;;;6.60;;
21416;SDS011;10869;52.238;10.716;2024-02-15T04:09:52;8.20;;;5.30;;
21416;SDS011;10869;52.238;10.716;2024-02-15T04:12:18;11.47;;;6.67;;
21416;SDS011;10869;52.238;10.716;2024-02-15T04:14:44;9.70;;;6.13;;
21416;SDS011;10869;52.238;10.716;2024-02-15T04:17:12;11.73;;;6.43;;
21416;SDS011;10869;52.238;10.716;2024-02-15T04:19:45;9.30;;;5.80;;
21416;SDS011;10869;52.238;10.716;2024-02-15T04:22:11;8.97;;;5.77;;
21416;SDS011;10869;52.238;10.716;2024-02-15T04:24:38;10.47;;;7.07;;
21416;SDS011;10869;52.238;10.716;2024-02-15T04:27:08;10.43;;;7.30;;
21416;SDS011;10869;52.238;10.716;2024-02-15T04:29:38;10.37;;;6.70;;
21416;SDS011;10869;52.238;10.716;2024-02-15T04:32:09;13.57;;;7.00;;
21416;SDS011;10869;52.238;10.716;2024-02-15T04:34:36;9.87;;;6.77;;
21416;SDS011;10869;52.238;10.716;2024-02-15T04:37:02;9.80;;;6.73;;
21416;SDS011;10869;52.238;10.716;2024-02-15T04:39:32;10.20;;;6.23;;
21416;SDS011;10869;52.238;10.716;2024-02-15T04:41:58;10.73;;;6.03;;
21416;SDS011;10869;52.238;10.716;2024-02-15T04:44:25;9.00;;;6.00;;
21416;SDS011;10869;52.238;10.716;2024-02-15T04:46:52;9.60;;;5.80;;
21416;SDS011;10869;52.238;10.716;2024-02-15T04:49:18;10.53;;;5.27;;
21416;SDS011;10869;52.238;10.716;2024-02-15T04:51:45;7.80;;;5.23;;
21416;SDS011;10869;52.238;10.716;2024-02-15T04:54:12;8.27;;;5.00;;
21416;SDS011;10869;52.238;10.716;2024-02-15T04:56:41;7.43;;;4.87;;
21416;SDS011;10869;52.238;10.716;2024-02-15T04:59:08;7.43;;;4.27;;
21416;SDS011;10869;52.238;10.716;2024-02-15T05:01:39;7.40;;;4.13;;
21416;SDS011;10869;52.238;10.716;2024-02-15T05:04:07;7.27;;;4.60;;
21416;SDS011;10869;52.238;10.716;2024-02-15T05:06:35;7.80;;;4.57;;
21416;SDS011;10869;52.238;10.716;2024-02-15T05:09:04;8.17;;;4.53;;
21416;SDS011;10869;52.238;10.716;2024-02-15T05:11:35;6.53;;;4.07;;
21416;SDS011;10869;52.238;10.716;2024-02-15T05:14:06;7.20;;;3.87;;
21416;SDS011;10869;52.238;10.716;2024-02-15T05:16:33;8.87;;;3.87;;
21416;SDS011;10869;52.238;10.716;2024-02-15T05:18:59;7.60;;;3.90;;
21416;SDS011;10869;52.238;10.716;2024-02-15T05:21:25;6.60;;;4.37;;
21416;SDS011;10869;52.238;10.716;2024-02-15T05:23:51;7.97;;;4.70;;
21416;SDS011;10869;52.238;10.716;2024-02-15T05:26:18;7.53;;;5.10;;
21416;SDS011;10869;52.238;10.716;2024-02-15T05:28:48;9.03;;;4.30;;
21416;SDS011;10869;52.238;10.716;2024-02-15T05:31:21;7.30;;;4.83;;
21416;SDS011;10869;52.238;10.716;2024-02-15T05:33:50;7.07;;;4.23;;
21416;SDS011;10869;52.238;10.716;2024-02-15T05:36:17;9.50;;;4.93;;
21416;SDS011;10869;52.238;10.716;2024-02-15T05:38:45;7.57;;;4.33;;
21416;SDS011;10869;52.238;10.716;2024-02-15T05:41:18;7.17;;;4.50;;
21416;SDS011;10869;52.238;10.716;2024-02-15T05:43:46;8.50;;;5.80;;
21416;SDS011;10869;52.238;10.716;2024-02-15T05:46:13;8.27;;;5.77;;
21416;SDS011;10869;52.238;10.716;2024-02-15T05:48:40;10.30;;;5.87;;
21416;SDS011;10869;52.238;10.716;2024-02-15T05:51:07;8.80;;;5.20;;
21416;SDS011;10869;52.238;10.716;2024-02-15T05:53:33;8.33;;;5.20;;
21416;SDS011;10869;52.238;10.716;2024-02-15T05:56:03;7.37;;;4.60;;
21416;SDS011;10869;52.238;10.716;2024-02-15T05:58:34;7.93;;;4.57;;
21416;SDS011;10869;52.238;10.716;2024-02-15T06:01:04;8.00;;;4.90;;
21416;SDS011;10869;52.238;10.716;2024-02-15T06:03:32;8.83;;;4.40;;
21416;SDS011;10869;52.238;10.716;2024-02-15T06:05:59;7.27;;;5.00;;
21416;SDS011;10869;52.238;10.716;2024-02-15T06:08:30;9.40;;;4.30;;
21416;SDS011;10869;52.238;10.716;2024-02-15T06:10:56;9.13;;;4.83;;
21416;SDS011;10869;52.238;10.716;2024-02-15T06:13:22;8.17;;;5.20;;
21416;SDS011;10869;52.238;10.716;2024-02-15T06:15:49;8.83;;;4.30;;
21416;SDS011;10869;52.238;10.716;2024-02-15T06:18:22;5.93;;;3.70;;
21416;SDS011;10869;52.238;10.716;2024-02-15T06:20:56;7.07;;;4.10;;
21416;SDS011;10869;52.238;10.716;2024-02-15T06:23:24;7.23;;;4.13;;
21416;SDS011;10869;52.238;10.716;2024-02-15T06:25:52;8.23;;;4.53;;
21416;SDS011;10869;52.238;10.716;2024-02-15T06:28:19;6.67;;;4.37;;
21416;SDS011;10869;52.238;10.716;2024-02-15T06:31:04;7.47;;;3.70;;
21416;SDS011;10869;52.238;10.716;2024-02-15T06:33:52;8.57;;;4.60;;
21416;SDS011;10869;52.238;10.716;2024-02-15T06:36:40;7.40;;;3.77;;
21416;SDS011;10869;52.238;10.716;2024-02-15T06:39:30;7.80;;;3.60;;
21416;SDS011;10869;52.238;10.716;2024-02-15T06:42:09;6.33;;;3.60;;
21416;SDS011;10869;52.238;10.716;2024-02-15T06:44:46;5.53;;;3.43;;
21416;SDS011;10869;52.238;10.716;2024-02-15T06:47:13;6.90;;;3.50;;
21416;SDS011;10869;52.238;10.716;2024-02-15T06:49:42;5.67;;;3.17;;
21416;SDS011;10869;52.238;10.716;2024-02-15T06:52:11;6.13;;;2.90;;
21416;SDS011;10869;52.238;10.716;2024-02-15T06:54:37;7.43;;;3.63;;
21416;SDS011;10869;52.238;10.716;2024-02-15T06:57:06;5.90;;;2.97;;
21416;SDS011;10869;52.238;10.716;2024-02-15T07:02:08;6.63;;;3.43;;
21416;SDS011;10869;52.238;10.716;2024-02-15T07:04:34;7.83;;;3.80;;
21416;SDS011;10869;52.238;10.716;2024-02-15T07:07:01;7.50;;;4.30;;
21416;SDS011;10869;52.238;10.716;2024-02-15T07:12:04;7.43;;;4.20;;
21416;SDS011;10869;52.238;10.716;2024-02-15T07:17:09;10.00;;;4.90;;
21416;SDS011;10869;52.238;10.716;2024-02-15T07:19:35;10.80;;;4.53;;
21416;SDS011;10869;52.238;10.716;2024-02-15T07:22:03;10.37;;;4.80;;
21416;SDS011;10869;52.238;10.716;2024-02-15T07:24:29;9.07;;;4.80;;
21416;SDS011;10869;52.238;10.716;2024-02-15T07:26:55;8.80;;;4.67;;
21416;SDS011;10869;52.238;10.716;2024-02-15T07:29:25;12.70;;;5.53;;
21416;SDS011;10869;52.238;10.716;2024-02-15T07:31:56;9.87;;;5.03;;
21416;SDS011;10869;52.238;10.716;2024-02-15T07:34:27;10.60;;;5.47;;
21416;SDS011;10869;52.238;10.716;2024-02-15T07:40:20;11.60;;;5.43;;
21416;SDS011;10869;52.238;10.716;2024-02-15T07:47:04;13.30;;;5.43;;
21416;SDS011;10869;52.238;10.716;2024-02-15T07:49:45;10.00;;;4.73;;
21416;SDS011;10869;52.238;10.716;2024-02-15T07:58:17;10.80;;;5.53;;
21416;SDS011;10869;52.238;10.716;2024-02-15T08:01:28;9.33;;;5.10;;
21416;SDS011;10869;52.238;10.716;2024-02-15T08:03:57;12.00;;;5.30;;
21416;SDS011;10869;52.238;10.716;2024-02-15T08:09:52;14.17;;;5.40;;
21416;SDS011;10869;52.238;10.716;2024-02-15T08:12:23;12.87;;;5.40;;
21416;SDS011;10869;52.238;10.716;2024-02-15T08:15:02;9.37;;;4.17;;
21416;SDS011;10869;52.238;10.716;2024-02-15T08:20:52;8.90;;;4.13;;
21416;SDS011;10869;52.238;10.716;2024-02-15T08:26:43;9.27;;;4.37;;
21416;SDS011;10869;52.238;10.716;2024-02-15T08:46:00;7.43;;;4.10;;
21416;SDS011;10869;52.238;10.716;2024-02-15T08:48:26;8.33;;;3.97;;
21416;SDS011;10869;52.238;10.716;2024-02-15T08:50:53;8.00;;;3.77;;
21416;SDS011;10869;52.238;10.716;2024-02-15T08:53:20;10.97;;;3.93;;
21416;SDS011;10869;52.238;10.716;2024-02-15T08:55:49;8.47;;;4.43;;
21416;SDS011;10869;52.238;10.716;2024-02-15T09:01:56;7.90;;;3.10;;
21416;SDS011;10869;52.238;10.716;2024-02-15T09:04:25;7.70;;;2.93;;
21416;SDS011;10869;52.238;10.716;2024-02-15T09:12:19;7.00;;;3.30;;
21416;SDS011;10869;52.238;10.716;2024-02-15T09:14:57;8.47;;;3.47;;
21416;SDS011;10869;52.238;10.716;2024-02-15T11:35:08;4.20;;;1.83;;
21416;SDS011;10869;52.238;10.716;2024-02-15T11:42:58;4.93;;;2.00;;
21416;SDS011;10869;52.238;10.716;2024-02-15T11:45:25;5.00;;;2.00;;
21416;SDS011;10869;52.238;10.716;2024-02-15T11:48:07;7.97;;;1.90;;
21416;SDS011;10869;52.238;10.716;2024-02-15T11:50:37;5.80;;;1.83;;
21416;SDS011;10869;52.238;10.716;2024-02-15T11:53:05;4.60;;;1.77;;
21416;SDS011;10869;52.238;10.716;2024-02-15T11:55:35;4.70;;;2.13;;
21416;SDS011;10869;52.238;10.716;2024-02-15T11:58:03;7.17;;;1.93;;
21416;SDS011;10869;52.238;10.716;2024-02-15T12:00:42;4.40;;;1.87;;
21416;SDS011;10869;52.238;10.716;2024-02-15T12:41:19;7.43;;;2.00;;
21416;SDS011;10869;52.238;10.716;2024-02-15T12:43:46;4.57;;;1.70;;
21416;SDS011;10869;52.238;10.716;2024-02-15T12:49:39;7.13;;;1.83;;
21416;SDS011;10869;52.238;10.716;2024-02-15T12:55:14;3.80;;;1.70;;
21416;SDS011;10869;52.238;10.716;2024-02-15T12:57:50;8.60;;;2.00;;
21416;SDS011;10869;52.238;10.716;2024-02-15T13:00:37;7.33;;;2.00;;
21416;SDS011;10869;52.238;10.716;2024-02-15T13:08:14;4.67;;;1.60;;
21416;SDS011;10869;52.238;10.716;2024-02-15T13:10:42;4.43;;;2.00;;
21416;SDS011;10869;52.238;10.716;2024-02-15T13:16:30;5.93;;;2.00;;
21416;SDS011;10869;52.238;10.716;2024-02-15T13:18:56;6.47;;;2.00;;
21416;SDS011;10869;52.238;10.716;2024-02-15T13:59:20;7.00;;;1.60;;
21416;SDS011;10869;52.238;10.716;2024-02-15T14:01:47;6.70;;;1.67;;
21416;SDS011;10869;52.238;10.716;2024-02-15T14:04:13;7.83;;;1.70;;
21416;SDS011;10869;52.238;10.716;2024-02-15T14:06:39;6.37;;;1.83;;
21416;SDS011;10869;52.238;10.716;2024-02-15T14:09:12;5.80;;;2.20;;
21416;SDS011;10869;52.238;10.716;2024-02-15T14:11:38;6.60;;;1.90;;
21416;SDS011;10869;52.238;10.716;2024-02-15T14:14:05;6.70;;;2.00;;
21416;SDS011;10869;52.238;10.716;2024-02-15T14:19:53;9.70;;;4.17;;
21416;SDS011;10869;52.238;10.716;2024-02-15T14:22:19;6.90;;;2.33;;
21416;SDS011;10869;52.238;10.716;2024-02-15T14:32:58;5.37;;;1.70;;
21416;SDS011;10869;52.238;10.716;2024-02-15T14:35:33;8.20;;;1.93;;
21416;SDS011;10869;52.238;10.716;2024-02-15T14:38:01;4.90;;;1.63;;
21416;SDS011;10869;52.238;10.716;2024-02-15T14:43:53;4.37;;;1.50;;
21416;SDS011;10869;52.238;10.716;2024-02-15T14:46:28;5.27;;;2.20;;
21416;SDS011;10869;52.238;10.716;2024-02-15T14:49:03;6.73;;;2.43;;
21416;SDS011;10869;52.238;10.716;2024-02-15T14:51:33;8.93;;;3.13;;
21416;SDS011;10869;52.238;10.716;2024-02-15T14:54:01;11.30;;;2.80;;
21416;SDS011;10869;52.238;10.716;2024-02-15T14:56:27;7.40;;;2.70;;
21416;SDS011;10869;52.238;10.716;2024-02-15T14:58:53;9.77;;;3.43;;
21416;SDS011;10869;52.238;10.716;2024-02-15T15:01:24;9.60;;;3.40;;
21416;SDS011;10869;52.238;10.716;2024-02-15T15:03:56;5.00;;;2.00;;
21416;SDS011;10869;52.238;10.716;2024-02-15T15:06:26;7.17;;;1.80;;
21416;SDS011;10869;52.238;10.716;2024-02-15T15:09:10;4.83;;;1.33;;
21416;SDS011;10869;52.238;10.716;2024-02-15T15:11:55;3.23;;;1.20;;
21416;SDS011;10869;52.238;10.716;2024-02-15T15:14:39;7.23;;;1.60;;
21416;SDS011;10869;52.238;10.716;2024-02-15T15:19:41;4.43;;;1.80;;
21416;SDS011;10869;52.238;10.716;2024-02-15T15:22:06;7.13;;;2.07;;
21416;SDS011;10869;52.238;10.716;2024-02-15T15:24:33;5.73;;;1.60;;
21416;SDS011;10869;52.238;10.716;2024-02-15T15:30:24;5.57;;;1.53;;
21416;SDS011;10869;52.238;10.716;2024-02-15T15:35:27;4.00;;;1.37;;
21416;SDS011;10869;52.238;10.716;2024-02-15T15:41:02;4.13;;;1.53;;
21416;SDS011;10869;52.238;10.716;2024-02-15T15:43:29;8.63;;;1.77;;
21416;SDS011;10869;52.238;10.716;2024-02-15T15:45:54;4.80;;;1.40;;
21416;SDS011;10869;52.238;10.716;2024-02-15T15:48:29;3.40;;;1.50;;
21416;SDS011;10869;52.238;10.716;2024-02-15T15:56:06;5.17;;;1.60;;
21416;SDS011;10869;52.238;10.716;2024-02-15T15:58:34;7.43;;;1.50;;
21416;SDS011;10869;52.238;10.716;2024-02-15T16:01:09;6.27;;;1.50;;
21416;SDS011;10869;52.238;10.716;2024-02-15T16:06:58;7.07;;;2.00;;
21416;SDS011;10869;52.238;10.716;2024-02-15T16:12:51;2.90;;;1.30;;
21416;SDS011;10869;52.238;10.716;2024-02-15T16:15:28;5.13;;;1.90;;
21416;SDS011;10869;52.238;10.716;2024-02-15T16:17:54;4.33;;;1.67;;
21416;SDS011;10869;52.238;10.716;2024-02-15T16:23:42;7.60;;;2.00;;
21416;SDS011;10869;52.238;10.716;2024-02-15T16:26:08;6.43;;;2.17;;
21416;SDS011;10869;52.238;10.716;2024-02-15T16:33:45;6.27;;;1.70;;
21416;SDS011;10869;52.238;10.716;2024-02-15T16:36:11;7.90;;;2.03;;
21416;SDS011;10869;52.238;10.716;2024-02-15T16:38:36;4.27;;;1.77;;
21416;SDS011;10869;52.238;10.716;2024-02-15T16:41:04;6.00;;;1.93;;
21416;SDS011;10869;52.238;10.716;2024-02-15T16:43:30;4.87;;;1.67;;
21416;SDS011;10869;52.238;10.716;2024-02-15T16:45:56;7.47;;;1.87;;
21416;SDS011;10869;52.238;10.716;2024-02-15T16:48:23;5.47;;;1.93;;
21416;SDS011;10869;52.238;10.716;2024-02-15T16:50:49;6.03;;;1.90;;
21416;SDS011;10869;52.238;10.716;2024-02-15T16:53:15;4.50;;;1.63;;
21416;SDS011;10869;52.238;10.716;2024-02-15T16:55:42;7.67;;;2.10;;
21416;SDS011;10869;52.238;10.716;2024-02-15T16:58:08;6.73;;;2.53;;
21416;SDS011;10869;52.238;10.716;2024-02-15T17:03:57;7.63;;;2.50;;
21416;SDS011;10869;52.238;10.716;2024-02-15T17:06:24;3.93;;;1.43;;
21416;SDS011;10869;52.238;10.716;2024-02-15T17:14:52;5.53;;;1.63;;
21416;SDS011;10869;52.238;10.716;2024-02-15T17:17:19;5.83;;;2.90;;
21416;SDS011;10869;52.238;10.716;2024-02-15T17:19:46;5.33;;;1.50;;
21416;SDS011;10869;52.238;10.716;2024-02-15T17:22:11;5.30;;;1.57;;
21416;SDS011;10869;52.238;10.716;2024-02-15T17:24:37;3.83;;;1.90;;
21416;SDS011;10869;52.238;10.716;2024-02-15T17:27:06;5.43;;;1.90;;
21416;SDS011;10869;52.238;10.716;2024-02-15T17:32:11;6.67;;;2.37;;
21416;SDS011;10869;52.238;10.716;2024-02-15T17:34:37;6.67;;;2.03;;
21416;SDS011;10869;52.238;10.716;2024-02-15T17:37:05;6.97;;;1.80;;
21416;SDS011;10869;52.238;10.716;2024-02-15T17:46:01;7.23;;;2.23;;
21416;SDS011;10869;52.238;10.716;2024-02-15T17:48:36;9.53;;;2.53;;
21416;SDS011;10869;52.238;10.716;2024-02-15T17:51:06;5.73;;;2.03;;
21416;SDS011;10869;52.238;10.716;2024-02-15T17:53:35;6.27;;;1.90;;
21416;SDS011;10869;52.238;10.716;2024-02-15T17:56:05;7.93;;;2.27;;
21416;SDS011;10869;52.238;10.716;2024-02-15T17:58:51;7.17;;;1.87;;
21416;SDS011;10869;52.238;10.716;2024-02-15T18:01:17;6.03;;;2.00;;
21416;SDS011;10869;52.238;10.716;2024-02-15T18:03:45;7.93;;;2.07;;
21416;SDS011;10869;52.238;10.716;2024-02-15T18:09:42;5.67;;;1.80;;
21416;SDS011;10869;52.238;10.716;2024-02-15T18:12:16;4.97;;;1.90;;
21416;SDS011;10869;52.238;10.716;2024-02-15T18:14:54;9.20;;;2.00;;
21416;SDS011;10869;52.238;10.716;2024-02-15T18:17:26;6.10;;;2.00;;
21416;SDS011;10869;52.238;10.716;2024-02-15T18:26:42;8.80;;;2.37;;
21416;SDS011;10869;52.238;10.716;2024-02-15T18:29:09;8.23;;;1.93;;
21416;SDS011;10869;52.238;10.716;2024-02-15T18:31:36;5.27;;;1.77;;
21416;SDS011;10869;52.238;10.716;2024-02-15T18:37:24;9.80;;;1.97;;
21416;SDS011;10869;52.238;10.716;2024-02-15T18:48:23;4.80;;;1.50;;
21416;SDS011;10869;52.238;10.716;2024-02-15T18:57:33;6.03;;;1.50;;
21416;SDS011;10869;52.238;10.716;2024-02-15T19:00:05;6.90;;;2.17;;
21416;SDS011;10869;52.238;10.716;2024-02-15T19:02:31;3.70;;;1.40;;
21416;SDS011;10869;52.238;10.716;2024-02-15T19:05:01;4.97;;;1.27;;
21416;SDS011;10869;52.238;10.716;2024-02-15T19:24:45;5.30;;;1.30;;
21416;SDS011;10869;52.238;10.716;2024-02-15T19:27:13;5.30;;;1.27;;
21416;SDS011;10869;52.238;10.716;2024-02-15T19:29:42;9.83;;;2.10;;
21416;SDS011;10869;52.238;10.716;2024-02-15T19:32:08;7.07;;;1.80;;
21416;SDS011;10869;52.238;10.716;2024-02-15T19:38:10;4.20;;;1.40;;
21416;SDS011;10869;52.238;10.716;2024-02-15T19:44:19;5.40;;;1.63;;
21416;SDS011;10869;52.238;10.716;2024-02-15T19:50:11;5.17;;;1.50;;
21416;SDS011;10869;52.238;10.716;2024-02-15T19:52:51;6.17;;;1.90;;
21416;SDS011;10869;52.238;10.716;2024-02-15T19:55:26;6.70;;;1.93;;
21416;SDS011;10869;52.238;10.716;2024-02-15T22:27:27;7.23;;;1.93;;
21416;SDS011;10869;52.238;10.716;2024-02-15T22:29:53;5.13;;;2.03;;
21416;SDS011;10869;52.238;10.716;2024-02-15T22:32:19;5.17;;;1.67;;
21416;SDS011;10869;52.238;10.716;2024-02-15T22:34:47;5.63;;;1.80;;
21416;SDS011;10869;52.238;10.716;2024-02-15T22:37:13;4.90;;;1.63;;
21416;SDS011;10869;52.238;10.716;2024-02-15T22:39:39;5.47;;;1.83;;
21416;SDS011;10869;52.238;10.716;2024-02-15T22:42:05;5.60;;;1.70;;
21416;SDS011;10869;52.238;10.716;2024-02-15T22:44:30;5.97;;;1.70;;
21416;SDS011;10869;52.238;10.716;2024-02-15T22:46:58;3.23;;;1.20;;
21416;SDS011;10869;52.238;10.716;2024-02-15T22:49:24;5.23;;;1.30;;
21416;SDS011;10869;52.238;10.716;2024-02-15T22:51:50;4.33;;;1.60;;
21416;SDS011;10869;52.238;10.716;2024-02-15T22:54:16;5.20;;;1.80;;
21416;SDS011;10869;52.238;10.716;2024-02-15T22:56:42;3.53;;;1.47;;
21416;SDS011;10869;52.238;10.716;2024-02-15T22:59:08;5.30;;;1.63;;
21416;SDS011;10869;52.238;10.716;2024-02-15T23:01:34;5.47;;;1.50;;
21416;SDS011;10869;52.238;10.716;2024-02-15T23:03:59;7.10;;;1.43;;
21416;SDS011;10869;52.238;10.716;2024-02-15T23:06:25;6.00;;;1.30;;
21416;SDS011;10869;52.238;10.716;2024-02-15T23:08:51;2.73;;;1.33;;
21416;SDS011;10869;52.238;10.716;2024-02-15T23:11:17;4.83;;;1.10;;
21416;SDS011;10869;52.238;10.716;2024-02-15T23:13:42;3.37;;;1.20;;
21416;SDS011;10869;52.238;10.716;2024-02-15T23:16:08;4.93;;;1.20;;
21416;SDS011;10869;52.238;10.716;2024-02-15T23:18:34;5.20;;;1.60;;
21416;SDS011;10869;52.238;10.716;2024-02-15T23:21:02;5.80;;;1.30;;
21416;SDS011;10869;52.238;10.716;2024-02-15T23:23:28;8.20;;;1.30;;
21416;SDS011;10869;52.238;10.716;2024-02-15T23:25:54;3.10;;;1.10;;
21416;SDS011;10869;52.238;10.716;2024-02-15T23:28:20;4.23;;;1.13;;
21416;SDS011;10869;52.238;10.716;2024-02-15T23:30:45;5.50;;;1.70;;
21416;SDS011;10869;52.238;10.716;2024-02-15T23:33:11;7.80;;;1.47;;
21416;SDS011;10869;52.238;10.716;2024-02-15T23:35:43;5.97;;;1.83;;
21416;SDS011;10869;52.238;10.716;2024-02-15T23:38:33;5.40;;;1.10;;
21416;SDS011;10869;52.238;10.716;2024-02-15T23:41:17;3.07;;;1.13;;
21416;SDS011;10869;52.238;10.716;2024-02-15T23:43:44;6.40;;;1.47;;
21416;SDS011;10869;52.238;10.716;2024-02-15T23:46:10;3.57;;;1.40;;
21416;SDS011;10869;52.238;10.716;2024-02-15T23:48:36;5.40;;;1.57;;
21416;SDS011;10869;52.238;10.716;2024-02-15T23:51:02;4.73;;;1.30;;
21416;SDS011;10869;52.238;10.716;2024-02-15T23:53:28;6.00;;;1.50;;
21416;SDS011;10869;52.238;10.716;2024-02-15T23:55:54;8.43;;;1.47;;
21416;SDS011;10869;52.238;10.716;2024-02-15T23:58:19;9.53;;;1.70;;
